Waregem, Belgium
Current Conditions -  °F | °C
As of 10:30 PM on Wednesday 17 Dec 2014 (Local Time) from LFQQ Reporting Station
Light Rain Light Rain  
Wind Chill: 50°   Ceiling: 1000
Heat Index: 50°   Visibility: 4mi
Dew Point: 48°   Wind: 5mph
Humidity: 94%   Direction: 180°S
Pressure: 29.83"   Gusts: NA
Location:  50.89°N, 3.43°E
Report Text: LFQQ 172130Z 18004KT 6000 -RA BKN010 10/09 Q1010 NOSIG
Loading
Personal Weather Stations






























Interactive Weather Map New forecast layout! Learn more

10-Day Weather Forecast

Advertisements
Track Severe Weather on mobile